Time;durP1;ratioP1;P1;durP2;ratioP2;P2;SDS_P1;SDS_P2;PMS_P1;PMS_P2;Temp;Humidity;BMP_temperature;BMP_pressure;BME280_temperature;BME280_humidity;BME280_pressure;Samples;Min_cycle;Max_cycle;Signal;HPM_P1;HPM_P2
2021/12/17 00:01:09;;;;;;;28.60;17.75;;;;;;;;;;8283939;28;20037;-66
2021/12/17 00:05:13;;;;;;;30.67;17.42;;;;;;;;;;8273904;28;20139;-66
2021/12/17 00:09:13;;;;;;;25.00;17.17;;;;;;;;;;8285001;28;20022;-66
2021/12/17 00:13:13;;;;;;;25.35;16.13;;;;;;;;;;8283380;28;20292;-66
2021/12/17 00:17:19;;;;;;;23.50;15.02;;;;;;;;;;8281476;28;20703;-66
2021/12/17 00:55:40;;;;;;;22.85;13.90;;;;;;;;;;8283843;28;20862;-66
2021/12/17 00:59:43;;;;;;;23.83;15.50;;;;;;;;;;8287475;28;20451;-65
2021/12/17 01:03:43;;;;;;;25.80;15.38;;;;;;;;;;8287070;28;20453;-66
2021/12/17 01:07:44;;;;;;;29.55;15.75;;;;;;;;;;8290108;28;20839;-65
2021/12/17 01:11:45;;;;;;;18.70;12.27;;;;;;;;;;8290686;28;20032;-65
2021/12/17 01:15:46;;;;;;;22.15;13.80;;;;;;;;;;8291027;28;20519;-66
2021/12/17 01:24:15;;;;;;;29.88;15.38;;;;;;;;;;8288981;28;20134;-65
2021/12/17 01:37:11;;;;;;;26.48;13.93;;;;;;;;;;8290358;28;20118;-66
2021/12/17 01:45:19;;;;;;;24.45;15.38;;;;;;;;;;8289341;28;20029;-66
2021/12/17 02:02:14;;;;;;;24.33;15.60;;;;;;;;;;8288865;28;20196;-65
2021/12/17 02:06:17;;;;;;;32.70;18.00;;;;;;;;;;8291235;28;20176;-65
2021/12/17 02:32:13;;;;;;;43.38;19.95;;;;;;;;;;8288074;28;20036;-65
2021/12/17 02:36:20;;;;;;;193.88;23.75;;;;;;;;;;8287188;28;20026;-65
2021/12/17 02:48:42;;;;;;;239.23;23.20;;;;;;;;;;8283576;28;20048;-66
2021/12/17 02:52:42;;;;;;;103.53;22.40;;;;;;;;;;8287827;28;20033;-66
2021/12/17 02:56:43;;;;;;;133.75;21.67;;;;;;;;;;8286757;28;20036;-66
2021/12/17 03:00:44;;;;;;;358.42;23.70;;;;;;;;;;8287371;28;20657;-66
2021/12/17 03:04:44;;;;;;;793.58;32.30;;;;;;;;;;8289460;28;20124;-66
2021/12/17 03:08:47;;;;;;;487.00;27.75;;;;;;;;;;8284871;28;20033;-66
2021/12/17 03:12:54;;;;;;;564.30;29.08;;;;;;;;;;8287262;28;20037;-66
2021/12/17 03:17:05;;;;;;;323.52;24.20;;;;;;;;;;8285054;28;20452;-66
2021/12/17 03:25:24;;;;;;;212.38;22.98;;;;;;;;;;8287093;28;20564;-66
2021/12/17 03:29:24;;;;;;;259.23;24.48;;;;;;;;;;8285744;28;20029;-66
2021/12/17 03:33:25;;;;;;;341.23;24.85;;;;;;;;;;8286744;28;20820;-66
2021/12/17 03:37:25;;;;;;;374.77;25.63;;;;;;;;;;8287951;28;20021;-66
2021/12/17 03:41:34;;;;;;;53.10;19.47;;;;;;;;;;8288745;28;20546;-66
2021/12/17 03:45:35;;;;;;;35.70;19.35;;;;;;;;;;8282962;28;20982;-66
2021/12/17 03:49:37;;;;;;;27.92;16.30;;;;;;;;;;8289316;28;20029;-66
2021/12/17 03:53:37;;;;;;;18.77;10.25;;;;;;;;;;8287024;28;20466;-66
2021/12/17 03:57:37;;;;;;;16.70;9.93;;;;;;;;;;8286198;28;20026;-66
2021/12/17 04:01:38;;;;;;;21.33;13.05;;;;;;;;;;8284216;28;20046;-66
2021/12/17 04:05:38;;;;;;;26.10;14.50;;;;;;;;;;8285670;28;20025;-67
2021/12/17 04:09:38;;;;;;;29.27;16.27;;;;;;;;;;8282136;28;20085;-66
2021/12/17 04:13:39;;;;;;;24.00;14.37;;;;;;;;;;8285322;28;20104;-66
2021/12/17 04:17:44;;;;;;;22.65;13.27;;;;;;;;;;8283521;28;20286;-66
2021/12/17 04:21:45;;;;;;;19.63;11.80;;;;;;;;;;8285733;28;20129;-66
2021/12/17 04:25:45;;;;;;;19.65;11.27;;;;;;;;;;8281034;28;20183;-66
2021/12/17 04:29:45;;;;;;;19.33;11.43;;;;;;;;;;8286746;28;20479;-66
2021/12/17 04:33:46;;;;;;;18.65;10.82;;;;;;;;;;8283848;28;20515;-66
2021/12/17 04:37:46;;;;;;;21.95;11.95;;;;;;;;;;8287587;28;22949;-66
2021/12/17 04:45:57;;;;;;;21.48;12.73;;;;;;;;;;8290320;28;20034;-66
2021/12/17 04:58:36;;;;;;;19.83;12.68;;;;;;;;;;8290047;28;20167;-66
2021/12/17 05:02:41;;;;;;;17.50;11.57;;;;;;;;;;8291244;28;20386;-66
2021/12/17 05:06:41;;;;;;;19.52;12.65;;;;;;;;;;8293483;28;20021;-66
2021/12/17 05:23:28;;;;;;;9.77;6.80;;;;;;;;;;8292519;28;20218;-65
2021/12/17 05:27:28;;;;;;;9.43;7.05;;;;;;;;;;8290474;28;20091;-66
2021/12/17 05:31:28;;;;;;;8.70;6.43;;;;;;;;;;8280607;28;20091;-65
2021/12/17 05:35:29;;;;;;;8.38;5.90;;;;;;;;;;8285537;28;20119;-66
2021/12/17 05:39:29;;;;;;;9.52;5.93;;;;;;;;;;8290460;28;20136;-65
2021/12/17 05:43:35;;;;;;;11.25;5.70;;;;;;;;;;8289979;28;20697;-65
2021/12/17 05:47:35;;;;;;;7.03;5.35;;;;;;;;;;8289098;28;20387;-66
2021/12/17 05:51:35;;;;;;;8.13;5.30;;;;;;;;;;8290324;28;20026;-65
2021/12/17 05:55:36;;;;;;;9.35;6.22;;;;;;;;;;8289450;28;20037;-65
2021/12/17 05:59:36;;;;;;;8.80;5.88;;;;;;;;;;8291433;28;20080;-65
2021/12/17 06:03:38;;;;;;;7.28;5.57;;;;;;;;;;8288776;28;20044;-65
2021/12/17 06:07:38;;;;;;;7.80;5.47;;;;;;;;;;8291597;28;20017;-65
2021/12/17 06:11:38;;;;;;;10.10;5.63;;;;;;;;;;8287231;28;20127;-65
2021/12/17 06:15:38;;;;;;;7.80;5.82;;;;;;;;;;8288339;28;20041;-65
2021/12/17 06:19:39;;;;;;;9.07;5.72;;;;;;;;;;8289278;28;20035;-65
2021/12/17 06:23:39;;;;;;;10.32;6.25;;;;;;;;;;8288342;28;20024;-65
2021/12/17 06:27:39;;;;;;;10.73;6.63;;;;;;;;;;8289186;28;20036;-65
2021/12/17 06:31:40;;;;;;;13.88;9.55;;;;;;;;;;8288903;28;20025;-65
2021/12/17 06:35:40;;;;;;;13.88;9.95;;;;;;;;;;8286531;28;20977;-65
2021/12/17 06:39:40;;;;;;;17.08;10.88;;;;;;;;;;8289122;28;20310;-66
2021/12/17 06:43:42;;;;;;;15.73;10.00;;;;;;;;;;8288885;28;20579;-65
2021/12/17 06:47:45;;;;;;;15.23;10.10;;;;;;;;;;8287875;28;20282;-65
2021/12/17 07:34:01;;;;;;;11.80;8.00;;;;;;;;;;8283867;28;20092;-65
2021/12/17 07:42:21;;;;;;;9.48;6.43;;;;;;;;;;8290408;28;20044;-65
2021/12/17 07:46:21;;;;;;;9.07;5.78;;;;;;;;;;8287104;28;20025;-66
2021/12/17 07:50:21;;;;;;;9.25;5.85;;;;;;;;;;8286320;28;20508;-66
2021/12/17 07:54:22;;;;;;;6.53;5.20;;;;;;;;;;8287599;28;20022;-65
2021/12/17 07:58:22;;;;;;;7.43;5.97;;;;;;;;;;8286444;28;20273;-66
2021/12/17 08:02:22;;;;;;;6.30;5.00;;;;;;;;;;8284739;28;20284;-65
2021/12/17 08:06:23;;;;;;;7.45;5.40;;;;;;;;;;8286659;28;20280;-65
2021/12/17 08:10:23;;;;;;;7.55;5.88;;;;;;;;;;8286016;28;20079;-65
2021/12/17 08:14:25;;;;;;;6.75;4.90;;;;;;;;;;8286605;28;21109;-65
2021/12/17 08:27:11;;;;;;;6.03;4.90;;;;;;;;;;8284523;28;20037;-65
2021/12/17 08:31:11;;;;;;;5.65;4.45;;;;;;;;;;8286488;28;20371;-65
2021/12/17 08:35:12;;;;;;;7.40;5.65;;;;;;;;;;8285921;28;20028;-65
2021/12/17 08:39:12;;;;;;;8.23;5.75;;;;;;;;;;8287615;28;20022;-65
2021/12/17 08:43:12;;;;;;;7.00;5.10;;;;;;;;;;8287117;28;20044;-65
2021/12/17 08:47:13;;;;;;;4.53;3.95;;;;;;;;;;8283470;28;20037;-66
2021/12/17 08:51:13;;;;;;;6.30;5.00;;;;;;;;;;8287551;28;20028;-66
2021/12/17 08:55:14;;;;;;;6.50;5.28;;;;;;;;;;8283904;28;20838;-66
2021/12/17 08:59:16;;;;;;;6.28;4.97;;;;;;;;;;8281454;28;20029;-67
2021/12/17 09:03:17;;;;;;;5.80;4.20;;;;;;;;;;8284226;28;20038;-66
2021/12/17 09:07:17;;;;;;;5.93;4.93;;;;;;;;;;8286384;28;20127;-66
2021/12/17 09:11:17;;;;;;;7.95;5.55;;;;;;;;;;8285768;28;20281;-67
2021/12/17 09:15:17;;;;;;;7.67;5.00;;;;;;;;;;8281528;28;20041;-66
2021/12/17 09:19:18;;;;;;;5.47;4.25;;;;;;;;;;8284045;28;20314;-66
2021/12/17 09:23:18;;;;;;;8.90;5.05;;;;;;;;;;8290838;28;20056;-66
2021/12/17 09:27:19;;;;;;;9.13;4.97;;;;;;;;;;8290999;28;20037;-67
2021/12/17 09:31:19;;;;;;;8.45;5.28;;;;;;;;;;8289038;28;20037;-66
2021/12/17 09:35:21;;;;;;;6.63;5.05;;;;;;;;;;8291592;28;20029;-66
2021/12/17 09:39:22;;;;;;;9.00;5.93;;;;;;;;;;8289245;28;20399;-66
2021/12/17 09:43:23;;;;;;;10.38;6.38;;;;;;;;;;8290084;28;20028;-65
2021/12/17 09:47:23;;;;;;;10.50;6.95;;;;;;;;;;8287518;28;20053;-66
2021/12/17 09:51:23;;;;;;;10.32;7.18;;;;;;;;;;8282300;28;20929;-65
2021/12/17 09:55:24;;;;;;;8.90;6.10;;;;;;;;;;8288753;28;20120;-65
2021/12/17 09:59:24;;;;;;;9.27;6.45;;;;;;;;;;8285758;28;20030;-65
2021/12/17 10:03:25;;;;;;;8.98;6.78;;;;;;;;;;8284651;28;20037;-65
2021/12/17 10:07:27;;;;;;;9.25;5.93;;;;;;;;;;8286712;28;20116;-65
2021/12/17 10:11:27;;;;;;;9.02;5.97;;;;;;;;;;8289859;28;20874;-66
2021/12/17 10:15:33;;;;;;;9.93;6.72;;;;;;;;;;8287591;28;20128;-67
2021/12/17 10:19:41;;;;;;;9.00;6.63;;;;;;;;;;8289253;28;20714;-67
2021/12/17 10:23:42;;;;;;;9.05;7.03;;;;;;;;;;8285009;28;20025;-66
2021/12/17 10:27:43;;;;;;;9.18;6.90;;;;;;;;;;8289972;28;20822;-66
2021/12/17 10:31:54;;;;;;;11.30;7.47;;;;;;;;;;8288275;28;21095;-67
2021/12/17 10:35:56;;;;;;;7.65;6.55;;;;;;;;;;8289754;28;20488;-67
2021/12/17 10:39:56;;;;;;;8.43;6.68;;;;;;;;;;8288115;28;20025;-66
2021/12/17 10:44:05;;;;;;;8.82;6.55;;;;;;;;;;8287833;28;20692;-66
2021/12/17 10:52:41;;;;;;;7.65;5.90;;;;;;;;;;8288631;28;20144;-67
2021/12/17 10:56:43;;;;;;;8.93;6.07;;;;;;;;;;8285806;28;20950;-67
2021/12/17 11:00:47;;;;;;;8.00;5.50;;;;;;;;;;8287874;28;20037;-67
2021/12/17 11:04:51;;;;;;;8.80;6.32;;;;;;;;;;8287951;28;20048;-67
2021/12/17 11:08:51;;;;;;;6.68;5.72;;;;;;;;;;8287685;28;20069;-66
2021/12/17 11:12:51;;;;;;;9.00;6.25;;;;;;;;;;8286987;28;20107;-66
2021/12/17 11:16:52;;;;;;;8.45;6.60;;;;;;;;;;8283894;28;20033;-66
2021/12/17 11:20:54;;;;;;;7.78;6.10;;;;;;;;;;8280933;28;20068;-66
2021/12/17 11:24:55;;;;;;;9.20;6.13;;;;;;;;;;8285670;28;20381;-66
2021/12/17 11:29:00;;;;;;;8.82;6.00;;;;;;;;;;8285835;28;20033;-67
2021/12/17 11:33:04;;;;;;;6.43;5.53;;;;;;;;;;8284649;28;20051;-67
2021/12/17 11:37:06;;;;;;;6.90;5.93;;;;;;;;;;8285931;28;20782;-67
2021/12/17 11:41:11;;;;;;;9.52;6.35;;;;;;;;;;8284824;28;21006;-66
2021/12/17 11:45:23;;;;;;;7.78;6.00;;;;;;;;;;8285303;28;20026;-67
2021/12/17 11:49:25;;;;;;;8.32;5.75;;;;;;;;;;8287434;28;20025;-66
2021/12/17 11:53:25;;;;;;;7.43;5.68;;;;;;;;;;8286138;28;20029;-66
2021/12/17 11:57:39;;;;;;;6.33;5.47;;;;;;;;;;8283488;28;20056;-67
2021/12/17 12:01:50;;;;;;;7.20;5.95;;;;;;;;;;8284882;28;20386;-67
2021/12/17 12:05:51;;;;;;;8.00;6.25;;;;;;;;;;8279245;28;20963;-67
2021/12/17 12:09:57;;;;;;;9.90;6.05;;;;;;;;;;8283730;28;20033;-67
2021/12/17 12:13:58;;;;;;;8.88;6.32;;;;;;;;;;8286485;28;20032;-67
2021/12/17 12:17:58;;;;;;;12.45;5.90;;;;;;;;;;8282751;28;20037;-67
2021/12/17 12:22:04;;;;;;;9.82;5.82;;;;;;;;;;8279749;28;20035;-67
2021/12/17 12:26:05;;;;;;;6.82;5.90;;;;;;;;;;8283930;28;20044;-67
2021/12/17 12:30:05;;;;;;;9.13;6.10;;;;;;;;;;8283924;28;20471;-67
2021/12/17 12:34:10;;;;;;;8.47;5.73;;;;;;;;;;8284384;28;20025;-67
2021/12/17 12:38:19;;;;;;;11.15;6.65;;;;;;;;;;8285666;28;20271;-67
2021/12/17 12:42:21;;;;;;;7.15;6.13;;;;;;;;;;8284928;28;20033;-67
2021/12/17 12:46:40;;;;;;;6.57;5.47;;;;;;;;;;8280715;28;20870;-67
2021/12/17 12:50:40;;;;;;;7.75;5.97;;;;;;;;;;8282867;28;20026;-67
2021/12/17 12:54:40;;;;;;;8.65;5.80;;;;;;;;;;8282028;28;20032;-67
2021/12/17 12:58:46;;;;;;;6.80;5.57;;;;;;;;;;8288947;28;20024;-66
2021/12/17 13:02:48;;;;;;;6.13;5.25;;;;;;;;;;8288463;28;20128;-67
2021/12/17 13:06:48;;;;;;;9.70;6.03;;;;;;;;;;8281476;28;20025;-66
2021/12/17 13:10:59;;;;;;;9.33;5.53;;;;;;;;;;8288730;28;20378;-66
2021/12/17 13:14:59;;;;;;;8.50;6.00;;;;;;;;;;8288090;28;20329;-66
2021/12/17 13:23:20;;;;;;;9.18;5.80;;;;;;;;;;8289986;28;20125;-66
2021/12/17 13:27:20;;;;;;;9.38;6.25;;;;;;;;;;8292727;28;20026;-66
2021/12/17 13:31:40;;;;;;;8.13;5.68;;;;;;;;;;8290446;28;20141;-67
2021/12/17 13:35:40;;;;;;;8.73;5.70;;;;;;;;;;8289631;28;20568;-68
2021/12/17 13:39:54;;;;;;;8.00;5.75;;;;;;;;;;8286091;28;20022;-67
2021/12/17 13:43:55;;;;;;;8.43;6.28;;;;;;;;;;8293755;28;20466;-67
2021/12/17 13:47:56;;;;;;;11.45;6.57;;;;;;;;;;8288084;28;20034;-67
2021/12/17 13:51:56;;;;;;;10.18;6.50;;;;;;;;;;8287466;28;20036;-67
2021/12/17 13:55:57;;;;;;;9.63;7.38;;;;;;;;;;8289069;28;20041;-67
2021/12/17 14:00:09;;;;;;;10.98;7.22;;;;;;;;;;8289065;28;20046;-67
2021/12/17 14:04:13;;;;;;;9.40;7.13;;;;;;;;;;8288478;28;20058;-67
2021/12/17 14:08:15;;;;;;;8.75;6.70;;;;;;;;;;8287615;28;20022;-67
2021/12/17 14:12:27;;;;;;;12.07;7.10;;;;;;;;;;8287527;28;20128;-67
2021/12/17 14:16:28;;;;;;;9.80;6.75;;;;;;;;;;8288740;28;20168;-67
2021/12/17 14:25:27;;;;;;;8.00;5.90;;;;;;;;;;8298973;28;20432;-67
2021/12/17 14:29:28;;;;;;;10.13;5.75;;;;;;;;;;8289547;28;20035;-67
2021/12/17 14:33:39;;;;;;;10.30;6.65;;;;;;;;;;8288323;28;20164;-67
2021/12/17 14:37:49;;;;;;;10.00;6.55;;;;;;;;;;8289027;28;20133;-67
2021/12/17 14:41:57;;;;;;;7.85;5.85;;;;;;;;;;8287124;28;20043;-67
2021/12/17 14:46:03;;;;;;;8.68;5.70;;;;;;;;;;8284883;28;20498;-68
2021/12/17 15:02:53;;;;;;;11.07;6.10;;;;;;;;;;8279385;28;20527;-67
2021/12/17 15:06:56;;;;;;;7.63;5.03;;;;;;;;;;8288282;28;20013;-67
2021/12/17 15:10:56;;;;;;;7.68;5.03;;;;;;;;;;8286331;28;20473;-68
2021/12/17 15:14:56;;;;;;;6.35;4.65;;;;;;;;;;8284308;28;20030;-67
2021/12/17 15:18:57;;;;;;;5.30;4.40;;;;;;;;;;8285676;28;20693;-67
2021/12/17 15:22:59;;;;;;;5.85;4.07;;;;;;;;;;8283384;28;20150;-67
2021/12/17 15:27:00;;;;;;;6.13;4.05;;;;;;;;;;8284203;28;20806;-67
2021/12/17 15:31:02;;;;;;;6.57;4.10;;;;;;;;;;8281363;28;20064;-67
2021/12/17 15:35:03;;;;;;;7.30;3.83;;;;;;;;;;8285908;28;20115;-67
2021/12/17 15:39:03;;;;;;;6.97;4.15;;;;;;;;;;8286893;28;20022;-67
2021/12/17 15:43:03;;;;;;;7.43;4.32;;;;;;;;;;8285996;28;20107;-67
2021/12/17 15:47:05;;;;;;;7.22;4.10;;;;;;;;;;8281888;28;20451;-67
2021/12/17 15:51:06;;;;;;;6.10;4.25;;;;;;;;;;8285188;28;20305;-67
2021/12/17 15:55:07;;;;;;;4.97;3.90;;;;;;;;;;8287499;28;20057;-67
2021/12/17 15:59:07;;;;;;;6.18;4.22;;;;;;;;;;8282664;28;20026;-67
2021/12/17 16:03:08;;;;;;;6.20;4.53;;;;;;;;;;8284959;28;20041;-67
2021/12/17 16:07:10;;;;;;;7.25;4.20;;;;;;;;;;8284569;28;20140;-67
2021/12/17 16:23:52;;;;;;;4.95;4.00;;;;;;;;;;8286797;28;20543;-66
2021/12/17 16:27:52;;;;;;;4.38;3.38;;;;;;;;;;8288127;28;20117;-67
2021/12/17 16:31:52;;;;;;;5.25;4.22;;;;;;;;;;8283682;28;20037;-67
2021/12/17 16:35:52;;;;;;;4.50;3.85;;;;;;;;;;8291581;28;20080;-67
2021/12/17 16:39:53;;;;;;;4.95;4.05;;;;;;;;;;8291704;28;20048;-67
2021/12/17 16:44:00;;;;;;;6.30;4.30;;;;;;;;;;8290704;28;20025;-67
2021/12/17 16:48:05;;;;;;;5.78;4.10;;;;;;;;;;8288755;28;20042;-67
2021/12/17 16:52:05;;;;;;;4.57;3.83;;;;;;;;;;8292361;28;20025;-67
2021/12/17 16:56:05;;;;;;;6.15;4.22;;;;;;;;;;8287687;28;20018;-67
2021/12/17 17:00:06;;;;;;;5.75;4.50;;;;;;;;;;8290822;28;20064;-67
2021/12/17 17:04:07;;;;;;;5.47;4.03;;;;;;;;;;8289118;28;20021;-67
2021/12/17 17:08:07;;;;;;;5.28;4.07;;;;;;;;;;8285260;28;20944;-66
2021/12/17 17:12:10;;;;;;;5.97;4.00;;;;;;;;;;8288231;28;20032;-67
2021/12/17 17:16:12;;;;;;;5.97;4.03;;;;;;;;;;8286761;28;20295;-66
2021/12/17 17:20:12;;;;;;;6.22;4.05;;;;;;;;;;8288075;28;20034;-66
2021/12/17 17:24:13;;;;;;;7.10;3.97;;;;;;;;;;8285895;28;20700;-66
2021/12/17 17:28:13;;;;;;;4.33;3.17;;;;;;;;;;8288878;28;20022;-66
2021/12/17 17:32:13;;;;;;;5.80;3.95;;;;;;;;;;8286818;28;20288;-66
2021/12/17 17:36:14;;;;;;;5.13;3.67;;;;;;;;;;8289767;28;20029;-66
2021/12/17 17:40:15;;;;;;;5.55;3.78;;;;;;;;;;8288328;28;20036;-66
2021/12/17 17:44:15;;;;;;;6.45;3.50;;;;;;;;;;8288609;28;20030;-66
2021/12/17 17:48:15;;;;;;;4.05;3.25;;;;;;;;;;8289240;28;20151;-66
2021/12/17 17:52:16;;;;;;;4.95;3.47;;;;;;;;;;8289153;28;20025;-67
2021/12/17 17:56:16;;;;;;;3.70;3.10;;;;;;;;;;8290088;28;20026;-66
2021/12/17 18:00:18;;;;;;;4.47;3.03;;;;;;;;;;8289400;28;20071;-67
2021/12/17 18:04:18;;;;;;;4.47;3.15;;;;;;;;;;8291461;28;20072;-67
2021/12/17 18:08:19;;;;;;;3.88;3.17;;;;;;;;;;8287922;28;20025;-66
2021/12/17 18:12:19;;;;;;;4.75;3.15;;;;;;;;;;8291572;28;20108;-67
2021/12/17 18:16:24;;;;;;;4.03;2.80;;;;;;;;;;8277581;28;20168;-66
2021/12/17 18:20:24;;;;;;;4.57;3.25;;;;;;;;;;8287568;28;20446;-66
2021/12/17 18:24:24;;;;;;;4.00;3.27;;;;;;;;;;8287524;28;20029;-66
2021/12/17 18:28:25;;;;;;;4.20;2.97;;;;;;;;;;8286430;28;20259;-67
2021/12/17 18:32:25;;;;;;;3.87;3.03;;;;;;;;;;8284847;28;20964;-67
2021/12/17 18:36:25;;;;;;;3.38;2.42;;;;;;;;;;8285567;28;20693;-67
2021/12/17 18:40:27;;;;;;;3.63;2.42;;;;;;;;;;8283787;28;20554;-67
2021/12/17 18:44:28;;;;;;;3.13;2.65;;;;;;;;;;8286154;28;20033;-67
2021/12/17 18:48:29;;;;;;;4.30;3.00;;;;;;;;;;8288084;28;20697;-67
2021/12/17 18:52:29;;;;;;;4.35;3.05;;;;;;;;;;8288303;28;20498;-67
2021/12/17 18:56:30;;;;;;;3.20;2.60;;;;;;;;;;8287688;28;20093;-66
2021/12/17 19:00:30;;;;;;;4.20;3.13;;;;;;;;;;8288626;28;20268;-66
2021/12/17 19:04:31;;;;;;;4.03;3.33;;;;;;;;;;8286748;28;20263;-66
2021/12/17 19:08:32;;;;;;;4.90;3.77;;;;;;;;;;8285510;28;20283;-66
2021/12/17 19:12:33;;;;;;;5.72;3.40;;;;;;;;;;8287501;28;20262;-67
2021/12/17 19:16:33;;;;;;;5.20;4.15;;;;;;;;;;8285484;28;20041;-67
2021/12/17 19:20:42;;;;;;;4.32;3.63;;;;;;;;;;8287300;28;20056;-66
2021/12/17 19:24:42;;;;;;;6.30;4.65;;;;;;;;;;8285328;28;20029;-66
2021/12/17 19:28:43;;;;;;;5.20;3.58;;;;;;;;;;8284925;28;20088;-66
2021/12/17 19:32:43;;;;;;;5.30;4.15;;;;;;;;;;8283776;28;20304;-66
2021/12/17 19:36:46;;;;;;;4.17;3.63;;;;;;;;;;8286715;28;20024;-67
2021/12/17 19:40:46;;;;;;;5.47;3.88;;;;;;;;;;8283156;28;20268;-66
2021/12/17 19:44:47;;;;;;;5.53;4.00;;;;;;;;;;8284294;28;20044;-67
2021/12/17 19:53:06;;;;;;;6.75;4.65;;;;;;;;;;8281848;28;20326;-66
2021/12/17 19:57:07;;;;;;;6.13;5.05;;;;;;;;;;8283958;28;20017;-67
2021/12/17 20:01:07;;;;;;;6.60;4.27;;;;;;;;;;8287373;28;20260;-66
2021/12/17 20:05:07;;;;;;;8.43;5.15;;;;;;;;;;8283475;28;20780;-67
2021/12/17 20:09:07;;;;;;;7.47;4.45;;;;;;;;;;8284254;28;20029;-67
2021/12/17 20:13:09;;;;;;;6.25;4.63;;;;;;;;;;8285433;28;20052;-66
2021/12/17 20:17:10;;;;;;;7.07;4.80;;;;;;;;;;8282541;28;20895;-67
2021/12/17 20:21:11;;;;;;;5.57;3.88;;;;;;;;;;8282453;28;20036;-66
2021/12/17 20:25:11;;;;;;;7.88;4.93;;;;;;;;;;8284874;28;20029;-66
2021/12/17 20:29:13;;;;;;;6.82;5.18;;;;;;;;;;8285402;28;20027;-66
2021/12/17 20:33:13;;;;;;;5.78;4.93;;;;;;;;;;8283003;28;20041;-66
2021/12/17 20:37:15;;;;;;;6.28;5.07;;;;;;;;;;8284678;28;20054;-66
2021/12/17 20:41:15;;;;;;;5.70;4.55;;;;;;;;;;8285664;28;20036;-66
2021/12/17 20:45:17;;;;;;;6.25;5.18;;;;;;;;;;8286374;28;20029;-66
2021/12/17 20:49:18;;;;;;;7.00;4.82;;;;;;;;;;8282793;28;20021;-66
2021/12/17 20:53:18;;;;;;;6.10;4.95;;;;;;;;;;8282607;28;20078;-66
2021/12/17 20:57:18;;;;;;;6.30;5.03;;;;;;;;;;8284644;28;20405;-66
2021/12/17 21:01:18;;;;;;;7.75;5.22;;;;;;;;;;8283526;28;20123;-66
2021/12/17 21:05:19;;;;;;;9.70;6.05;;;;;;;;;;8279541;28;20032;-66
2021/12/17 21:09:20;;;;;;;7.15;5.00;;;;;;;;;;8282189;28;20433;-66
2021/12/17 21:13:20;;;;;;;6.05;4.80;;;;;;;;;;8281776;28;20074;-66
2021/12/17 21:17:20;;;;;;;8.80;5.22;;;;;;;;;;8282970;28;20106;-66
2021/12/17 21:21:21;;;;;;;5.55;4.70;;;;;;;;;;8290106;28;20102;-66
2021/12/17 21:25:21;;;;;;;8.40;4.93;;;;;;;;;;8288223;28;20295;-66
2021/12/17 21:29:22;;;;;;;6.97;5.07;;;;;;;;;;8291597;28;20029;-66
2021/12/17 21:33:23;;;;;;;7.22;5.63;;;;;;;;;;8290638;28;20502;-66
2021/12/17 21:37:23;;;;;;;6.30;4.68;;;;;;;;;;8288899;28;20014;-66
2021/12/17 21:41:24;;;;;;;6.72;4.82;;;;;;;;;;8285769;28;20732;-66
2021/12/17 21:45:24;;;;;;;6.85;4.90;;;;;;;;;;8286808;28;20037;-66
2021/12/17 21:49:24;;;;;;;6.23;5.10;;;;;;;;;;8288018;28;20037;-66
2021/12/17 21:53:25;;;;;;;5.68;4.70;;;;;;;;;;8287365;28;20348;-66
2021/12/17 21:57:25;;;;;;;7.03;4.67;;;;;;;;;;8285733;28;20036;-66
2021/12/17 22:01:26;;;;;;;6.72;5.40;;;;;;;;;;8288078;28;20624;-66
2021/12/17 22:05:32;;;;;;;7.03;5.55;;;;;;;;;;8288350;28;20026;-66
2021/12/17 22:09:34;;;;;;;8.82;6.00;;;;;;;;;;8287400;28;20025;-66
2021/12/17 22:13:35;;;;;;;8.88;6.43;;;;;;;;;;8286436;28;20037;-66
2021/12/17 22:17:35;;;;;;;8.85;5.78;;;;;;;;;;8287486;28;20049;-66
2021/12/17 22:21:42;;;;;;;8.97;6.43;;;;;;;;;;8286777;28;21088;-66
2021/12/17 22:25:43;;;;;;;10.02;5.63;;;;;;;;;;8283170;28;20728;-66
2021/12/17 22:29:43;;;;;;;11.40;6.70;;;;;;;;;;8288446;28;20017;-66
2021/12/17 22:33:44;;;;;;;8.38;5.95;;;;;;;;;;8287142;28;20048;-66
2021/12/17 22:37:44;;;;;;;7.63;5.75;;;;;;;;;;8289045;28;20172;-66
2021/12/17 22:41:46;;;;;;;9.63;6.38;;;;;;;;;;8286075;28;20133;-66
2021/12/17 22:45:47;;;;;;;9.00;6.80;;;;;;;;;;8287688;28;20036;-66
2021/12/17 22:49:47;;;;;;;12.55;6.28;;;;;;;;;;8286812;28;21304;-66
2021/12/17 22:53:48;;;;;;;9.93;6.22;;;;;;;;;;8284156;28;20025;-66
2021/12/17 22:57:49;;;;;;;8.07;6.35;;;;;;;;;;8284385;28;20021;-66
2021/12/17 23:01:51;;;;;;;10.75;6.30;;;;;;;;;;8287519;28;20041;-66
2021/12/17 23:05:51;;;;;;;9.02;6.93;;;;;;;;;;8287580;28;20049;-66
2021/12/17 23:09:51;;;;;;;12.10;7.28;;;;;;;;;;8287883;28;20030;-66
2021/12/17 23:13:52;;;;;;;9.13;6.25;;;;;;;;;;8282150;28;20026;-66
2021/12/17 23:17:52;;;;;;;9.00;6.35;;;;;;;;;;8283156;28;20029;-66
2021/12/17 23:21:53;;;;;;;11.23;7.38;;;;;;;;;;8285031;28;20043;-66
2021/12/17 23:25:53;;;;;;;9.07;6.47;;;;;;;;;;8281662;28;20095;-66
2021/12/17 23:29:56;;;;;;;10.70;7.45;;;;;;;;;;8287048;28;20133;-66
2021/12/17 23:34:04;;;;;;;10.02;7.47;;;;;;;;;;8281732;28;20073;-66
2021/12/17 23:38:04;;;;;;;10.57;7.25;;;;;;;;;;8285473;28;20052;-66
2021/12/17 23:42:05;;;;;;;12.38;7.85;;;;;;;;;;8285011;28;20618;-66
2021/12/17 23:46:06;;;;;;;10.90;8.05;;;;;;;;;;8284447;28;20048;-66
2021/12/17 23:50:07;;;;;;;11.68;8.32;;;;;;;;;;8284650;28;20029;-66
2021/12/17 23:54:08;;;;;;;12.13;7.93;;;;;;;;;;8284528;28;20036;-66
2021/12/17 23:58:08;;;;;;;11.02;7.82;;;;;;;;;;8284368;28;20102;-66
